createdAt,value
2024-05-09T00:00:39.309Z,15.60
2024-05-09T00:03:09.812Z,15.50
2024-05-09T00:05:39.666Z,15.60
2024-05-09T00:08:09.438Z,15.60
2024-05-09T00:13:08.543Z,15.60
2024-05-09T00:18:06.363Z,15.60
2024-05-09T00:23:09.767Z,15.60
2024-05-09T00:30:35.980Z,14.80
2024-05-09T00:33:06.952Z,15.30
2024-05-09T00:35:36.244Z,15.20
2024-05-09T00:38:04.837Z,15.20
2024-05-09T00:40:39.939Z,15.10
2024-05-09T00:43:10.492Z,15.30
2024-05-09T00:45:38.426Z,15.10
2024-05-09T00:48:09.679Z,15.20
2024-05-09T00:55:40.008Z,15.20
2024-05-09T00:58:11.496Z,15.20
2024-05-09T01:00:41.158Z,15.10
2024-05-09T01:03:11.966Z,15.00
2024-05-09T01:05:41.957Z,15.00
2024-05-09T01:13:07.304Z,15.10
2024-05-09T01:18:09.206Z,15.00
2024-05-09T01:20:42.076Z,15.00
2024-05-09T01:23:14.796Z,14.70
2024-05-09T01:25:44.444Z,15.20
2024-05-09T01:28:12.556Z,14.70
2024-05-09T01:30:40.256Z,14.90
2024-05-09T01:33:09.998Z,14.70
2024-05-09T01:40:44.614Z,14.70
2024-05-09T01:43:12.487Z,14.60
2024-05-09T01:45:41.084Z,14.60
2024-05-09T01:48:10.185Z,14.60
2024-05-09T01:50:41.669Z,14.70
2024-05-09T01:53:13.095Z,14.50
2024-05-09T01:55:41.602Z,14.50
2024-05-09T02:00:40.815Z,14.50
2024-05-09T02:03:15.185Z,14.60
2024-05-09T02:05:46.766Z,14.60
2024-05-09T02:08:17.311Z,14.50
2024-05-09T02:10:46.436Z,14.30
2024-05-09T02:13:14.944Z,14.50
2024-05-09T02:15:42.850Z,14.50
2024-05-09T02:18:11.102Z,14.10
2024-05-09T02:20:40.151Z,14.30
2024-05-09T02:23:08.968Z,14.30
2024-05-09T02:25:37.302Z,14.10
2024-05-09T02:35:32.340Z,14.10
2024-05-09T02:38:00.151Z,14.10
2024-05-09T02:43:07.216Z,14.10
2024-05-09T02:45:35.331Z,14.10
2024-05-09T02:50:37.830Z,14.00
2024-05-09T02:53:08.244Z,14.00
2024-05-09T02:55:36.458Z,13.80
2024-05-09T02:58:06.082Z,13.80
2024-05-09T03:00:38.572Z,13.70
2024-05-09T03:08:13.814Z,14.00
2024-05-09T03:10:42.085Z,13.80
2024-05-09T03:13:10.944Z,14.00
2024-05-09T03:15:38.972Z,13.70
2024-05-09T03:18:07.357Z,13.90
2024-05-09T03:20:36.469Z,13.80
2024-05-09T03:23:05.919Z,13.70
2024-05-09T03:25:34.245Z,13.90
2024-05-09T03:28:02.365Z,13.70
2024-05-09T03:30:38.777Z,13.80
2024-05-09T03:35:38.531Z,13.90
2024-05-09T03:38:06.263Z,13.80
2024-05-09T03:40:34.027Z,13.70
2024-05-09T03:45:29.184Z,13.50
2024-05-09T03:47:57.183Z,13.60
2024-05-09T03:50:30.356Z,13.50
2024-05-09T03:53:02.306Z,13.30
2024-05-09T03:55:30.068Z,13.20
2024-05-09T03:57:57.953Z,13.10
2024-05-09T04:05:43.854Z,13.20
2024-05-09T04:08:12.202Z,13.30
2024-05-09T04:10:40.247Z,13.40
2024-05-09T04:13:08.839Z,13.30
2024-05-09T04:15:36.525Z,13.20
2024-05-09T04:18:04.931Z,13.30
2024-05-09T04:20:38.388Z,13.30
2024-05-09T04:23:10.217Z,13.60
2024-05-09T04:25:38.085Z,13.10
2024-05-09T04:28:07.400Z,13.20
2024-05-09T04:33:11.817Z,13.30
2024-05-09T04:35:41.607Z,13.30
2024-05-09T04:38:09.799Z,13.20
2024-05-09T04:40:38.133Z,13.20
2024-05-09T04:43:12.937Z,13.10
2024-05-09T04:45:40.895Z,13.00
2024-05-09T04:48:09.880Z,12.90
2024-05-09T04:50:39.324Z,13.10
2024-05-09T04:53:08.804Z,13.30
2024-05-09T04:55:38.358Z,13.30
2024-05-09T04:58:08.183Z,12.50
2024-05-09T05:00:38.444Z,13.50
2024-05-09T05:03:09.972Z,13.20
2024-05-09T05:05:39.770Z,13.20
2024-05-09T05:08:11.771Z,13.20
2024-05-09T05:10:58.845Z,13.30
2024-05-09T05:16:08.120Z,13.50
2024-05-09T05:18:35.846Z,13.60
2024-05-09T05:21:04.241Z,13.70
2024-05-09T05:23:32.044Z,13.70
2024-05-09T05:28:36.184Z,13.60
2024-05-09T05:31:04.227Z,13.40
2024-05-09T05:33:31.999Z,13.50
2024-05-09T05:35:59.694Z,14.10
2024-05-09T05:38:28.601Z,13.80
2024-05-09T05:40:56.744Z,13.70
2024-05-09T05:43:24.713Z,13.80
2024-05-09T05:45:52.431Z,13.70
2024-05-09T05:48:20.263Z,13.80
2024-05-09T05:50:48.112Z,13.70
2024-05-09T05:55:52.364Z,13.90
2024-05-09T05:58:20.735Z,14.00
2024-05-09T06:00:48.448Z,14.10
2024-05-09T06:03:16.409Z,14.30
2024-05-09T06:05:44.975Z,14.30
2024-05-09T06:08:12.967Z,14.50
2024-05-09T06:10:41.767Z,14.60
2024-05-09T06:13:11.983Z,14.80
2024-05-09T06:15:40.768Z,14.40
2024-05-09T06:18:11.137Z,14.60
2024-05-09T06:20:40.763Z,14.80
2024-05-09T06:23:09.964Z,14.70
2024-05-09T06:25:38.569Z,14.80
2024-05-09T06:28:07.183Z,15.10
2024-05-09T06:30:39.891Z,14.90
2024-05-09T06:33:12.297Z,14.90
2024-05-09T06:35:42.299Z,15.00
2024-05-09T06:38:10.372Z,15.00
2024-05-09T06:40:41.552Z,15.00
2024-05-09T06:48:19.325Z,14.90
2024-05-09T06:50:47.940Z,15.10
2024-05-09T06:53:17.151Z,15.10
2024-05-09T06:55:45.105Z,14.90
2024-05-09T06:58:13.075Z,15.10
2024-05-09T07:00:42.138Z,15.20
2024-05-09T07:03:11.631Z,15.10
2024-05-09T07:05:41.485Z,15.20
2024-05-09T07:08:09.459Z,15.10
2024-05-09T07:10:37.579Z,15.20
2024-05-09T07:13:09.148Z,15.20
2024-05-09T07:15:37.175Z,15.30
2024-05-09T07:18:10.589Z,15.60
2024-05-09T07:20:39.666Z,15.50
2024-05-09T07:23:09.974Z,15.60
2024-05-09T07:25:38.017Z,15.50
2024-05-09T07:28:09.443Z,15.90
2024-05-09T07:30:37.162Z,15.90
2024-05-09T07:33:06.045Z,16.00
2024-05-09T07:38:13.436Z,16.10
2024-05-09T07:40:42.187Z,16.20
2024-05-09T07:43:12.095Z,16.30
2024-05-09T07:45:50.401Z,16.40
2024-05-09T07:52:37.988Z,16.50
2024-05-09T07:58:29.074Z,16.60
2024-05-09T08:06:01.246Z,16.80
2024-05-09T08:08:28.932Z,16.90
2024-05-09T08:10:56.658Z,17.10
2024-05-09T08:13:24.403Z,17.20
2024-05-09T08:15:52.870Z,17.20
2024-05-09T08:18:20.845Z,17.20
2024-05-09T08:20:49.291Z,17.20
2024-05-09T08:23:17.302Z,17.10
2024-05-09T08:30:48.449Z,17.20
2024-05-09T08:33:16.549Z,17.20
2024-05-09T08:35:44.570Z,17.30
2024-05-09T08:40:51.886Z,17.10
2024-05-09T08:43:20.389Z,17.20
2024-05-09T08:45:50.622Z,17.20
2024-05-09T08:48:19.315Z,17.20
2024-05-09T08:50:49.328Z,17.30
2024-05-09T08:56:01.071Z,17.30
2024-05-09T08:58:30.839Z,17.30
2024-05-09T09:00:59.429Z,17.30
2024-05-09T09:03:29.910Z,17.40
2024-05-09T09:06:04.422Z,17.60
2024-05-09T09:08:33.352Z,17.60
2024-05-09T09:11:01.386Z,17.50
2024-05-09T09:13:29.941Z,17.60
2024-05-09T09:15:58.195Z,17.60
2024-05-09T09:18:28.825Z,17.70
2024-05-09T09:20:57.970Z,17.70
2024-05-09T09:23:27.495Z,19.30
2024-05-09T09:25:59.028Z,17.90
2024-05-09T09:28:26.737Z,17.90
2024-05-09T09:31:33.817Z,17.80
2024-05-09T09:34:08.092Z,17.80
2024-05-09T09:36:38.143Z,18.00
2024-05-09T09:39:06.919Z,18.00
2024-05-09T09:44:07.124Z,18.10
2024-05-09T09:46:36.112Z,18.20
2024-05-09T09:49:04.122Z,18.20
2024-05-09T09:51:33.376Z,18.30
2024-05-09T09:54:02.447Z,18.30
2024-05-09T09:56:32.456Z,18.30
2024-05-09T09:59:03.728Z,18.20
2024-05-09T10:04:04.927Z,18.30
2024-05-09T10:06:35.440Z,18.30
2024-05-09T10:11:32.830Z,18.50
2024-05-09T10:14:02.616Z,18.60
2024-05-09T10:16:31.602Z,18.50
2024-05-09T10:18:59.468Z,18.60
2024-05-09T10:21:27.741Z,18.30
2024-05-09T10:29:10.701Z,18.50
2024-05-09T10:31:42.461Z,18.40
2024-05-09T10:34:19.394Z,18.50
2024-05-09T10:36:51.689Z,18.60
2024-05-09T10:39:20.372Z,18.40
2024-05-09T10:41:49.254Z,18.70
2024-05-09T10:44:17.956Z,18.70
2024-05-09T10:46:46.173Z,18.60
2024-05-09T10:49:14.399Z,18.60
2024-05-09T10:51:44.012Z,18.80
2024-05-09T10:54:12.166Z,18.80
2024-05-09T10:56:41.362Z,18.90
2024-05-09T10:59:09.101Z,19.20
2024-05-09T11:01:37.101Z,18.90
2024-05-09T11:04:07.719Z,19.10
2024-05-09T11:06:37.658Z,19.10
2024-05-09T11:09:06.043Z,19.10
2024-05-09T11:11:33.956Z,19.20
2024-05-09T11:14:12.336Z,19.10
2024-05-09T11:21:51.711Z,19.30
2024-05-09T11:24:19.686Z,19.30
2024-05-09T11:29:17.845Z,19.10
2024-05-09T11:31:47.349Z,19.00
2024-05-09T11:34:15.341Z,19.20
2024-05-09T11:41:47.095Z,19.30
2024-05-09T11:44:14.863Z,19.30
2024-05-09T11:46:43.173Z,19.50
2024-05-09T11:49:11.006Z,19.50
2024-05-09T11:51:38.885Z,17.90
2024-05-09T11:54:06.642Z,19.50
2024-05-09T11:56:34.684Z,19.60
2024-05-09T12:01:39.001Z,19.70
2024-05-09T12:04:07.264Z,19.80
2024-05-09T12:09:13.445Z,19.90
2024-05-09T12:11:41.286Z,20.00
2024-05-09T12:14:08.981Z,20.10
2024-05-09T12:16:36.776Z,20.00
2024-05-09T12:19:40.886Z,20.10
2024-05-09T12:22:08.747Z,20.00
2024-05-09T12:24:36.757Z,20.30
2024-05-09T12:27:05.327Z,20.30
2024-05-09T12:29:34.995Z,20.40
2024-05-09T12:32:05.906Z,20.40
2024-05-09T12:37:11.589Z,20.00
2024-05-09T12:39:39.746Z,20.40
2024-05-09T12:42:07.531Z,20.30
2024-05-09T12:44:35.544Z,20.30
2024-05-09T12:52:08.080Z,20.60
2024-05-09T12:57:04.250Z,20.70
2024-05-09T13:02:07.685Z,20.80
2024-05-09T13:04:37.264Z,20.80
2024-05-09T13:07:07.839Z,20.90
2024-05-09T13:09:36.023Z,20.70
2024-05-09T13:12:05.391Z,20.70
2024-05-09T13:14:33.078Z,20.80
2024-05-09T13:17:00.947Z,21.00
2024-05-09T13:19:28.807Z,20.80
2024-05-09T13:21:56.509Z,20.90
2024-05-09T13:24:24.426Z,20.50
2024-05-09T13:29:21.558Z,20.20
2024-05-09T13:31:49.255Z,20.20
2024-05-09T13:34:17.105Z,20.10
2024-05-09T13:36:45.020Z,20.40
2024-05-09T13:39:12.751Z,20.30
2024-05-09T13:44:08.895Z,19.70
2024-05-09T13:46:36.885Z,20.20
2024-05-09T13:49:05.586Z,20.40
2024-05-09T13:51:34.156Z,20.60
2024-05-09T13:54:01.894Z,20.60
2024-05-09T13:56:29.857Z,20.70
2024-05-09T13:58:57.737Z,20.00
2024-05-09T14:01:25.984Z,20.70
2024-05-09T14:03:53.952Z,20.60
2024-05-09T14:06:22.334Z,22.10
2024-05-09T14:08:50.134Z,20.60
2024-05-09T14:11:17.899Z,20.60
2024-05-09T14:13:45.635Z,20.80
2024-05-09T14:16:13.738Z,20.80
2024-05-09T14:18:41.566Z,20.80
2024-05-09T14:21:09.390Z,20.70
2024-05-09T14:23:37.137Z,20.40
2024-05-09T14:26:05.234Z,20.40
2024-05-09T14:28:33.012Z,20.40
2024-05-09T14:31:00.782Z,20.00
2024-05-09T14:36:06.090Z,20.20
2024-05-09T14:38:33.757Z,20.20
2024-05-09T14:41:01.539Z,20.20
2024-05-09T14:43:29.438Z,20.10
2024-05-09T14:45:57.298Z,20.50
2024-05-09T14:48:26.096Z,20.60
2024-05-09T14:50:54.190Z,20.70
2024-05-09T14:53:22.742Z,20.80
2024-05-09T14:55:50.752Z,20.70
2024-05-09T14:58:18.671Z,20.90
2024-05-09T15:00:50.288Z,20.90
2024-05-09T15:03:20.437Z,20.80
2024-05-09T15:05:49.711Z,20.60
2024-05-09T15:08:19.149Z,20.80
2024-05-09T15:10:48.583Z,20.90
2024-05-09T15:13:17.151Z,20.90
2024-05-09T15:15:45.960Z,20.90
2024-05-09T15:18:14.614Z,21.00
2024-05-09T15:20:44.255Z,20.70
2024-05-09T15:23:12.527Z,20.50
2024-05-09T15:25:40.731Z,21.00
2024-05-09T15:28:08.707Z,21.10
2024-05-09T15:30:37.244Z,21.10
2024-05-09T15:33:07.357Z,21.00
2024-05-09T15:35:40.349Z,20.70
2024-05-09T15:38:08.352Z,20.80
2024-05-09T15:40:39.880Z,20.80
2024-05-09T15:43:10.916Z,20.70
2024-05-09T15:45:40.773Z,20.70
2024-05-09T15:48:11.128Z,20.40
2024-05-09T15:50:41.577Z,20.70
2024-05-09T15:53:12.581Z,20.60
2024-05-09T15:55:41.827Z,20.50
2024-05-09T15:58:10.286Z,19.90
2024-05-09T16:00:41.727Z,20.30
2024-05-09T16:03:13.217Z,20.30
2024-05-09T16:05:44.143Z,20.40
2024-05-09T16:08:13.545Z,20.30
2024-05-09T16:13:13.936Z,20.20
2024-05-09T16:15:43.569Z,20.40
2024-05-09T16:18:11.786Z,20.50
2024-05-09T16:25:45.372Z,20.40
2024-05-09T16:28:13.283Z,20.60
2024-05-09T16:30:41.298Z,20.60
2024-05-09T16:33:11.043Z,20.80
2024-05-09T16:35:38.895Z,19.20
2024-05-09T16:38:07.073Z,20.70
2024-05-09T16:40:39.286Z,20.60
2024-05-09T16:43:10.228Z,20.60
2024-05-09T16:45:40.423Z,20.80
2024-05-09T16:53:15.018Z,20.90
2024-05-09T16:55:42.852Z,20.70
2024-05-09T16:58:11.569Z,20.80
2024-05-09T17:00:42.935Z,20.80
2024-05-09T17:03:14.828Z,20.90
2024-05-09T17:05:44.749Z,21.00
2024-05-09T17:13:09.231Z,21.50
2024-05-09T17:15:38.233Z,21.70
2024-05-09T17:18:07.382Z,22.10
2024-05-09T17:20:37.460Z,22.10
2024-05-09T17:23:11.615Z,22.20
2024-05-09T17:25:39.578Z,22.20
2024-05-09T17:30:38.625Z,22.50
2024-05-09T17:38:06.713Z,22.40
2024-05-09T17:40:39.030Z,22.10
2024-05-09T17:45:38.409Z,22.90
2024-05-09T17:48:09.098Z,22.80
2024-05-09T17:50:37.970Z,23.00
2024-05-09T17:53:06.955Z,23.40
2024-05-09T17:55:36.040Z,23.40
2024-05-09T17:58:05.541Z,23.40
2024-05-09T18:00:38.966Z,23.10
2024-05-09T18:05:38.654Z,23.00
2024-05-09T18:08:08.450Z,23.00
2024-05-09T18:10:39.291Z,23.00
2024-05-09T18:13:09.002Z,23.40
2024-05-09T18:15:38.308Z,23.60
2024-05-09T18:18:08.168Z,23.80
2024-05-09T18:20:42.311Z,23.90
2024-05-09T18:23:14.817Z,24.10
2024-05-09T18:25:44.263Z,23.90
2024-05-09T18:28:12.673Z,23.40
2024-05-09T18:35:45.108Z,21.70
2024-05-09T18:38:13.077Z,21.80
2024-05-09T18:40:43.554Z,21.30
2024-05-09T18:43:12.897Z,21.00
2024-05-09T18:45:40.965Z,20.70
2024-05-09T18:48:10.257Z,20.60
2024-05-09T18:50:40.694Z,20.40
2024-05-09T18:53:11.366Z,20.40
2024-05-09T18:55:40.461Z,20.30
2024-05-09T18:58:08.390Z,20.40
2024-05-09T19:00:39.059Z,18.90
2024-05-09T19:03:12.417Z,20.10
2024-05-09T19:05:43.221Z,19.80
2024-05-09T19:08:13.646Z,19.90
2024-05-09T19:10:44.431Z,19.90
2024-05-09T19:13:13.890Z,19.80
2024-05-09T19:15:43.793Z,19.60
2024-05-09T19:18:15.870Z,19.60
2024-05-09T19:20:44.237Z,19.50
2024-05-09T19:23:12.257Z,19.30
2024-05-09T19:25:40.640Z,19.40
2024-05-09T19:30:40.701Z,19.20
2024-05-09T19:33:12.345Z,19.20
2024-05-09T19:35:41.827Z,19.10
2024-05-09T19:38:09.916Z,19.10
2024-05-09T19:40:37.967Z,19.30
2024-05-09T19:43:06.660Z,19.10
2024-05-09T19:45:35.794Z,18.80
2024-05-09T19:48:06.295Z,19.00
2024-05-09T19:50:42.043Z,18.90
2024-05-09T19:53:12.412Z,19.00
2024-05-09T19:58:09.231Z,18.70
2024-05-09T20:00:40.531Z,18.90
2024-05-09T20:03:13.923Z,18.70
2024-05-09T20:05:44.019Z,18.60
2024-05-09T20:08:12.211Z,18.60
2024-05-09T20:15:45.485Z,18.60
2024-05-09T20:18:13.734Z,18.60
2024-05-09T20:20:43.852Z,18.40
2024-05-09T20:23:13.852Z,18.30
2024-05-09T20:25:42.352Z,18.50
2024-05-09T20:28:10.567Z,18.40
2024-05-09T20:30:39.016Z,18.50
2024-05-09T20:33:08.707Z,18.40
2024-05-09T20:35:37.513Z,18.40
2024-05-09T20:38:06.011Z,18.30
2024-05-09T20:40:37.527Z,18.30
2024-05-09T20:43:08.254Z,18.40
2024-05-09T20:45:36.530Z,18.30
2024-05-09T20:48:06.538Z,18.30
2024-05-09T20:53:12.480Z,18.20
2024-05-09T20:55:43.715Z,18.20
2024-05-09T20:58:12.172Z,17.80
2024-05-09T21:00:43.716Z,18.20
2024-05-09T21:08:19.698Z,17.90
2024-05-09T21:15:54.219Z,17.70
2024-05-09T21:18:22.321Z,17.80
2024-05-09T21:28:23.138Z,17.60
2024-05-09T21:30:51.067Z,17.60
2024-05-09T21:33:19.159Z,17.60
2024-05-09T21:35:47.002Z,17.40
2024-05-09T21:38:15.728Z,17.30
2024-05-09T21:45:48.963Z,17.10
2024-05-09T21:48:17.014Z,17.20
2024-05-09T21:50:44.821Z,17.20
2024-05-09T21:53:13.215Z,17.10
2024-05-09T21:55:41.666Z,17.10
2024-05-09T22:00:45.665Z,17.10
2024-05-09T22:03:14.628Z,17.00
2024-05-09T22:05:43.793Z,16.90
2024-05-09T22:08:11.679Z,16.90
2024-05-09T22:10:39.504Z,16.80
2024-05-09T22:13:09.942Z,16.80
2024-05-09T22:15:39.770Z,16.70
2024-05-09T22:18:10.089Z,16.70
2024-05-09T22:20:42.675Z,16.80
2024-05-09T22:23:10.746Z,16.60
2024-05-09T22:25:38.748Z,16.70
2024-05-09T22:28:07.573Z,16.70
2024-05-09T22:30:38.662Z,16.60
2024-05-09T22:33:10.681Z,16.60
2024-05-09T22:35:40.267Z,16.40
2024-05-09T22:38:08.642Z,16.40
2024-05-09T22:40:46.139Z,16.30
2024-05-09T22:43:19.543Z,16.40
2024-05-09T22:45:48.039Z,16.50
2024-05-09T22:48:15.928Z,16.30
2024-05-09T22:55:51.727Z,16.00
2024-05-09T22:58:19.945Z,16.30
2024-05-09T23:00:47.789Z,16.40
2024-05-09T23:03:16.004Z,16.20
2024-05-09T23:05:44.017Z,16.20
2024-05-09T23:08:11.675Z,16.20
2024-05-09T23:10:39.454Z,16.10
2024-05-09T23:13:08.251Z,16.20
2024-05-09T23:15:37.498Z,16.00
2024-05-09T23:18:06.731Z,16.10
2024-05-09T23:20:38.697Z,16.10
2024-05-09T23:23:08.583Z,16.10
2024-05-09T23:25:37.156Z,15.90
2024-05-09T23:28:06.520Z,15.90
2024-05-09T23:33:13.065Z,15.90
2024-05-09T23:35:42.901Z,15.90
2024-05-09T23:38:10.671Z,15.70
2024-05-09T23:43:14.294Z,15.90
2024-05-09T23:45:42.878Z,15.90
2024-05-09T23:48:11.441Z,15.70
2024-05-09T23:50:40.495Z,15.70
2024-05-09T23:53:09.915Z,15.70
2024-05-09T23:55:38.699Z,15.50
2024-05-09T23:58:06.979Z,15.60
